createdAt,value
2018-11-04T00:00:46.638Z,46.60
2018-11-04T00:03:15.129Z,46.60
2018-11-04T00:05:43.501Z,46.60
2018-11-04T00:08:11.870Z,47.20
2018-11-04T00:10:40.295Z,46.50
2018-11-04T00:13:08.792Z,46.50
2018-11-04T00:15:37.159Z,46.50
2018-11-04T00:18:06.121Z,46.50
2018-11-04T00:20:35.065Z,46.50
2018-11-04T00:23:03.406Z,46.50
2018-11-04T00:25:31.802Z,46.50
2018-11-04T00:28:00.166Z,46.50
2018-11-04T00:30:28.536Z,46.40
2018-11-04T00:32:56.891Z,46.40
2018-11-04T00:35:25.838Z,46.40
2018-11-04T00:37:54.169Z,46.40
2018-11-04T00:40:23.665Z,46.40
2018-11-04T00:42:52.597Z,46.40
2018-11-04T00:45:21.044Z,46.40
2018-11-04T00:47:49.363Z,46.40
2018-11-04T00:50:17.800Z,46.90
2018-11-04T00:52:46.221Z,46.40
2018-11-04T00:55:14.893Z,46.30
2018-11-04T00:57:43.539Z,46.80
2018-11-04T01:00:18.781Z,46.30
2018-11-04T01:02:48.487Z,46.30
2018-11-04T01:05:17.616Z,46.20
2018-11-04T01:07:45.971Z,46.20
2018-11-04T01:10:15.202Z,46.20
2018-11-04T01:12:44.300Z,46.20
2018-11-04T01:15:13.893Z,46.10
2018-11-04T01:17:42.860Z,46.10
2018-11-04T01:20:13.301Z,46.10
2018-11-04T01:22:41.804Z,46.00
2018-11-04T01:25:11.077Z,46.00
2018-11-04T01:27:39.786Z,46.00
2018-11-04T01:30:11.058Z,46.00
2018-11-04T01:32:39.360Z,46.00
2018-11-04T01:35:08.297Z,45.90
2018-11-04T01:37:36.636Z,45.90
2018-11-04T01:40:06.385Z,45.90
2018-11-04T01:42:34.749Z,45.90
2018-11-04T01:45:03.119Z,45.90
2018-11-04T01:47:31.514Z,45.90
2018-11-04T01:49:59.884Z,45.90
2018-11-04T01:52:28.233Z,45.80
2018-11-04T01:54:58.486Z,45.80
2018-11-04T01:57:26.981Z,45.80
2018-11-04T01:59:55.340Z,45.80
2018-11-04T02:02:23.846Z,45.80
2018-11-04T02:04:52.194Z,45.80
2018-11-04T02:07:20.544Z,45.80
2018-11-04T02:09:48.928Z,45.70
2018-11-04T02:12:17.340Z,45.70
2018-11-04T02:14:45.680Z,45.80
2018-11-04T02:17:14.700Z,45.70
2018-11-04T02:19:43.054Z,45.70
2018-11-04T02:22:11.557Z,45.60
2018-11-04T02:24:39.924Z,45.60
2018-11-04T02:27:08.426Z,45.60
2018-11-04T02:29:36.813Z,45.60
2018-11-04T02:32:05.941Z,45.60
2018-11-04T02:34:34.977Z,45.60
2018-11-04T02:37:03.408Z,45.60
2018-11-04T02:39:32.576Z,45.60
2018-11-04T02:42:01.593Z,46.20
2018-11-04T02:44:30.261Z,45.60
2018-11-04T02:46:58.793Z,45.60
2018-11-04T02:49:27.180Z,45.60
2018-11-04T02:51:55.547Z,45.60
2018-11-04T02:54:24.038Z,45.60
2018-11-04T02:56:52.618Z,45.60
2018-11-04T02:59:21.263Z,45.60
2018-11-04T03:01:49.643Z,45.60
2018-11-04T03:04:18.219Z,45.60
2018-11-04T03:06:47.314Z,45.60
2018-11-04T03:09:15.651Z,45.60
2018-11-04T03:11:44.029Z,45.60
2018-11-04T03:14:12.408Z,45.50
2018-11-04T03:16:40.884Z,45.50
2018-11-04T03:19:10.217Z,45.50
2018-11-04T03:21:38.617Z,45.50
2018-11-04T03:24:06.939Z,45.50
2018-11-04T03:26:35.309Z,45.50
2018-11-04T03:29:03.725Z,45.50
2018-11-04T03:31:32.155Z,45.40
2018-11-04T03:34:01.225Z,45.40
2018-11-04T03:36:29.576Z,45.40
2018-11-04T03:38:58.056Z,45.40
2018-11-04T03:41:27.011Z,45.40
2018-11-04T03:43:55.328Z,45.40
2018-11-04T03:46:23.709Z,45.40
2018-11-04T03:48:52.031Z,45.40
2018-11-04T03:51:20.492Z,45.40
2018-11-04T03:53:48.809Z,45.40
2018-11-04T03:56:17.250Z,45.40
2018-11-04T03:58:45.609Z,45.40
2018-11-04T04:01:14.113Z,45.40
2018-11-04T04:03:42.966Z,45.40
2018-11-04T04:06:11.318Z,45.40
2018-11-04T04:08:39.708Z,45.40
2018-11-04T04:11:08.058Z,45.40
2018-11-04T04:13:36.776Z,45.40
2018-11-04T04:16:05.204Z,45.40
2018-11-04T04:18:34.150Z,45.40
2018-11-04T04:21:11.408Z,45.40
2018-11-04T04:23:41.141Z,45.40
2018-11-04T04:26:10.967Z,45.40
2018-11-04T04:28:39.978Z,45.40
2018-11-04T04:31:08.407Z,45.30
2018-11-04T04:33:36.806Z,45.30
2018-11-04T04:36:05.782Z,45.40
2018-11-04T04:38:34.231Z,45.40
2018-11-04T04:41:02.663Z,45.30
2018-11-04T04:43:31.177Z,45.40
2018-11-04T04:45:59.709Z,45.30
2018-11-04T04:48:28.113Z,45.10
2018-11-04T04:50:56.489Z,45.30
2018-11-04T04:53:25.590Z,45.40
2018-11-04T04:55:55.606Z,45.40
2018-11-04T04:58:24.008Z,45.40
2018-11-04T05:00:53.171Z,45.40
2018-11-04T05:03:21.891Z,45.40
2018-11-04T05:05:50.848Z,45.40
2018-11-04T05:08:19.209Z,45.40
2018-11-04T05:10:47.857Z,45.40
2018-11-04T05:13:16.772Z,45.40
2018-11-04T05:15:45.260Z,45.40
2018-11-04T05:18:13.573Z,45.40
2018-11-04T05:20:42.178Z,45.40
2018-11-04T05:23:10.608Z,45.40
2018-11-04T05:25:38.955Z,45.40
2018-11-04T05:28:08.531Z,45.40
2018-11-04T05:30:37.157Z,45.40
2018-11-04T05:33:05.748Z,45.80
2018-11-04T05:35:34.114Z,45.40
2018-11-04T05:38:02.486Z,45.30
2018-11-04T05:40:30.872Z,45.30
2018-11-04T05:42:59.889Z,45.40
2018-11-04T05:45:28.256Z,45.40
2018-11-04T05:47:57.970Z,45.40
2018-11-04T05:50:26.998Z,45.40
2018-11-04T05:52:55.395Z,45.40
2018-11-04T05:55:23.910Z,45.40
2018-11-04T05:57:52.946Z,45.40
2018-11-04T06:00:21.443Z,45.40
2018-11-04T06:02:49.967Z,45.40
2018-11-04T06:05:18.331Z,45.50
2018-11-04T06:07:47.287Z,45.40
2018-11-04T06:10:15.666Z,45.40
2018-11-04T06:12:44.135Z,46.10
2018-11-04T06:15:12.495Z,45.50
2018-11-04T06:17:40.862Z,45.50
2018-11-04T06:20:10.372Z,45.50
2018-11-04T06:22:38.809Z,45.50
2018-11-04T06:25:07.449Z,45.50
2018-11-04T06:27:36.428Z,45.50
2018-11-04T06:30:07.052Z,45.50
2018-11-04T06:32:35.517Z,45.50
2018-11-04T06:35:04.202Z,45.60
2018-11-04T06:37:32.521Z,45.50
2018-11-04T06:40:00.974Z,45.50
2018-11-04T06:42:29.440Z,45.50
2018-11-04T06:44:57.936Z,45.50
2018-11-04T06:47:26.564Z,45.50
2018-11-04T06:49:54.936Z,45.50
2018-11-04T06:52:23.387Z,45.60
2018-11-04T06:54:51.842Z,45.60
2018-11-04T06:57:20.242Z,45.60
2018-11-04T06:59:48.771Z,45.60
2018-11-04T07:02:17.184Z,45.60
2018-11-04T07:04:45.914Z,45.60
2018-11-04T07:07:14.315Z,45.60
2018-11-04T07:09:43.542Z,45.60
2018-11-04T07:12:12.050Z,45.60
2018-11-04T07:14:40.432Z,45.60
2018-11-04T07:17:09.714Z,45.60
2018-11-04T07:19:38.992Z,45.60
2018-11-04T07:22:07.335Z,45.60
2018-11-04T07:24:35.889Z,45.60
2018-11-04T07:27:04.825Z,45.60
2018-11-04T07:29:33.230Z,45.60
2018-11-04T07:32:01.664Z,45.60
2018-11-04T07:34:29.993Z,45.60
2018-11-04T07:36:58.476Z,45.60
2018-11-04T07:39:27.383Z,45.90
2018-11-04T07:41:55.731Z,46.10
2018-11-04T07:44:24.204Z,46.20
2018-11-04T07:46:52.535Z,46.20
2018-11-04T07:49:21.643Z,46.20
2018-11-04T07:51:49.997Z,46.20
2018-11-04T07:54:18.403Z,46.20
2018-11-04T07:56:46.807Z,46.20
2018-11-04T07:59:15.573Z,46.40
2018-11-04T08:01:44.047Z,46.60
2018-11-04T08:04:12.504Z,46.70
2018-11-04T08:06:40.812Z,46.90
2018-11-04T08:09:10.582Z,46.70
2018-11-04T08:11:39.430Z,47.10
2018-11-04T08:14:07.796Z,47.10
2018-11-04T08:16:36.200Z,47.10
2018-11-04T08:19:05.694Z,47.60
2018-11-04T08:21:34.133Z,47.20
2018-11-04T08:24:02.537Z,47.30
2018-11-04T08:26:30.861Z,47.30
2018-11-04T08:29:00.020Z,47.30
2018-11-04T08:31:28.535Z,47.40
2018-11-04T08:33:56.977Z,47.50
2018-11-04T08:36:25.417Z,47.50
2018-11-04T08:38:53.871Z,47.50
2018-11-04T08:41:22.883Z,47.60
2018-11-04T08:43:51.246Z,47.70
2018-11-04T08:46:19.568Z,47.80
2018-11-04T08:48:47.938Z,47.80
2018-11-04T08:51:17.017Z,47.80
2018-11-04T08:53:45.467Z,47.80
2018-11-04T08:56:14.439Z,47.80
2018-11-04T08:58:42.941Z,47.80
2018-11-04T09:01:11.309Z,47.70
2018-11-04T09:03:39.812Z,47.80
2018-11-04T09:06:08.162Z,47.90
2018-11-04T09:08:37.440Z,47.90
2018-11-04T09:11:06.324Z,47.90
2018-11-04T09:13:34.702Z,47.90
2018-11-04T09:16:03.114Z,47.90
2018-11-04T09:18:31.472Z,47.80
2018-11-04T09:21:00.004Z,47.80
2018-11-04T09:23:28.341Z,47.80
2018-11-04T09:25:57.333Z,47.80
2018-11-04T09:28:25.704Z,47.80
2018-11-04T09:30:54.197Z,47.80
2018-11-04T09:33:22.550Z,47.80
2018-11-04T09:35:51.202Z,47.80
2018-11-04T09:38:19.953Z,47.80
2018-11-04T09:40:48.488Z,47.70
2018-11-04T09:43:16.976Z,47.70
2018-11-04T09:45:46.003Z,47.70
2018-11-04T09:48:15.222Z,47.70
2018-11-04T09:50:43.610Z,47.60
2018-11-04T09:53:12.034Z,47.60
2018-11-04T09:55:41.146Z,47.50
2018-11-04T09:58:09.679Z,47.60
2018-11-04T10:00:38.180Z,47.50
2018-11-04T10:03:06.610Z,47.50
2018-11-04T10:05:35.097Z,47.20
2018-11-04T10:08:03.515Z,47.50
2018-11-04T10:10:31.900Z,47.40
2018-11-04T10:13:00.373Z,47.40
2018-11-04T10:15:29.405Z,47.90
2018-11-04T10:17:57.764Z,47.40
2018-11-04T10:20:26.503Z,47.50
2018-11-04T10:22:54.671Z,47.50
2018-11-04T10:25:23.234Z,47.40
2018-11-04T10:27:51.637Z,47.40
2018-11-04T10:30:20.169Z,47.40
2018-11-04T10:32:48.537Z,47.40
2018-11-04T10:35:16.877Z,47.40
2018-11-04T10:37:45.335Z,47.40
2018-11-04T10:40:14.037Z,47.40
2018-11-04T10:42:42.491Z,47.30
2018-11-04T10:45:11.729Z,47.30
2018-11-04T10:47:40.097Z,47.30
2018-11-04T10:50:10.431Z,47.30
2018-11-04T10:52:38.926Z,47.30
2018-11-04T10:55:08.499Z,47.30
2018-11-04T10:57:36.909Z,47.20
2018-11-04T11:00:11.897Z,47.20
2018-11-04T11:02:40.905Z,47.20
2018-11-04T11:05:09.944Z,47.10
2018-11-04T11:07:38.357Z,47.10
2018-11-04T11:10:07.917Z,47.10
2018-11-04T11:12:36.247Z,48.90
2018-11-04T11:15:05.959Z,49.10
2018-11-04T11:17:34.387Z,49.90
2018-11-04T11:20:02.750Z,48.90
2018-11-04T11:22:31.248Z,48.90
2018-11-04T11:24:59.614Z,49.50
2018-11-04T11:27:28.776Z,50.30
2018-11-04T11:29:57.208Z,51.10
2018-11-04T11:32:25.542Z,51.60
2018-11-04T11:34:54.006Z,52.30
2018-11-04T11:37:22.521Z,52.70
2018-11-04T11:39:50.939Z,52.90
2018-11-04T11:42:19.378Z,53.40
2018-11-04T11:44:47.907Z,53.90
2018-11-04T11:47:16.356Z,54.40
2018-11-04T11:49:44.952Z,54.70
2018-11-04T11:52:13.328Z,55.00
2018-11-04T11:54:41.852Z,55.30
2018-11-04T11:57:10.276Z,55.70
2018-11-04T11:59:38.651Z,55.50
2018-11-04T12:02:07.399Z,53.60
2018-11-04T12:04:35.730Z,53.10
2018-11-04T12:07:04.180Z,52.80
2018-11-04T12:09:32.611Z,52.20
2018-11-04T12:12:01.077Z,51.80
2018-11-04T12:14:29.568Z,51.50
2018-11-04T12:16:57.977Z,51.00
2018-11-04T12:19:26.311Z,51.00
2018-11-04T12:21:55.651Z,50.80
2018-11-04T12:24:24.644Z,50.60
2018-11-04T12:26:53.239Z,50.50
2018-11-04T12:29:21.579Z,50.40
2018-11-04T12:31:49.954Z,50.30
2018-11-04T12:34:18.430Z,50.10
2018-11-04T12:36:46.917Z,50.00
2018-11-04T12:39:15.327Z,50.00
2018-11-04T12:41:43.718Z,49.80
2018-11-04T12:44:12.082Z,49.70
2018-11-04T12:46:40.557Z,49.70
2018-11-04T12:49:08.937Z,49.60
2018-11-04T12:51:37.339Z,49.60
2018-11-04T12:54:05.709Z,49.50
2018-11-04T12:56:34.198Z,49.50
2018-11-04T12:59:02.506Z,49.40
2018-11-04T13:01:31.054Z,49.30
2018-11-04T13:04:00.386Z,49.30
2018-11-04T13:06:28.725Z,49.20
2018-11-04T13:08:57.712Z,49.20
2018-11-04T13:11:26.144Z,49.10
2018-11-04T13:13:54.432Z,49.10
2018-11-04T13:16:22.795Z,49.10
2018-11-04T13:18:51.714Z,49.00
2018-11-04T13:21:20.162Z,48.90
2018-11-04T13:23:48.510Z,48.90
2018-11-04T13:26:16.924Z,48.90
2018-11-04T13:28:45.780Z,48.90
2018-11-04T13:31:14.148Z,48.90
2018-11-04T13:33:42.554Z,48.90
2018-11-04T13:36:10.954Z,48.80
2018-11-04T13:38:39.502Z,48.90
2018-11-04T13:41:07.828Z,49.30
2018-11-04T13:43:36.321Z,49.20
2018-11-04T13:46:04.786Z,48.90
2018-11-04T13:48:33.140Z,48.90
2018-11-04T13:51:01.545Z,48.90
2018-11-04T13:53:29.964Z,48.90
2018-11-04T13:55:58.692Z,48.90
2018-11-04T13:58:27.098Z,48.90
2018-11-04T14:00:55.550Z,48.90
2018-11-04T14:03:23.955Z,49.00
2018-11-04T14:05:52.406Z,49.60
2018-11-04T14:08:20.815Z,48.80
2018-11-04T14:10:49.320Z,49.00
2018-11-04T14:13:17.795Z,49.10
2018-11-04T14:15:46.108Z,49.00
2018-11-04T14:18:14.905Z,48.90
2018-11-04T14:20:43.262Z,48.70
2018-11-04T14:23:11.621Z,48.70
2018-11-04T14:25:39.981Z,48.70
2018-11-04T14:28:08.350Z,48.70
2018-11-04T14:30:36.736Z,48.70
2018-11-04T14:33:05.180Z,48.70
2018-11-04T14:35:33.501Z,48.60
2018-11-04T14:38:01.909Z,48.30
2018-11-04T14:40:30.367Z,48.00
2018-11-04T14:42:58.735Z,47.50
2018-11-04T14:45:28.149Z,47.10
2018-11-04T14:47:56.617Z,47.00
2018-11-04T14:50:24.965Z,46.90
2018-11-04T14:52:53.410Z,47.00
2018-11-04T14:55:21.675Z,47.20
2018-11-04T14:57:50.149Z,47.60
2018-11-04T15:00:18.539Z,47.60
2018-11-04T15:02:46.915Z,47.70
2018-11-04T15:05:15.287Z,47.90
2018-11-04T15:07:43.742Z,48.00
2018-11-04T15:10:13.495Z,48.10
2018-11-04T15:12:42.477Z,48.20
2018-11-04T15:15:13.648Z,48.20
2018-11-04T15:17:42.185Z,48.30
2018-11-04T15:20:11.445Z,48.60
2018-11-04T15:22:46.188Z,48.70
2018-11-04T15:25:15.557Z,48.70
2018-11-04T15:27:44.087Z,48.90
2018-11-04T15:30:12.820Z,48.90
2018-11-04T15:32:41.899Z,48.90
2018-11-04T15:35:10.475Z,49.00
2018-11-04T15:37:38.921Z,48.90
2018-11-04T15:40:09.205Z,48.90
2018-11-04T15:42:37.598Z,48.90
2018-11-04T15:45:07.611Z,49.30
2018-11-04T15:47:36.017Z,48.80
2018-11-04T15:50:05.925Z,48.70
2018-11-04T15:52:34.326Z,48.70
2018-11-04T15:55:02.798Z,48.60
2018-11-04T15:57:31.152Z,48.60
2018-11-04T15:59:59.560Z,48.50
2018-11-04T16:02:27.898Z,48.50
2018-11-04T16:04:56.322Z,48.40
2018-11-04T16:07:24.775Z,48.30
2018-11-04T16:09:53.296Z,48.30
2018-11-04T16:12:21.742Z,48.20
2018-11-04T16:14:50.734Z,48.10
2018-11-04T16:17:19.096Z,48.10
2018-11-04T16:19:47.542Z,48.10
2018-11-04T16:22:15.978Z,48.00
2018-11-04T16:24:44.366Z,48.00
2018-11-04T16:27:12.726Z,47.90
2018-11-04T16:29:41.130Z,47.80
2018-11-04T16:32:09.553Z,48.10
2018-11-04T16:34:37.851Z,47.90
2018-11-04T16:37:06.752Z,47.90
2018-11-04T16:39:35.320Z,48.00
2018-11-04T16:42:03.746Z,48.00
2018-11-04T16:44:32.382Z,48.00
2018-11-04T16:47:00.912Z,47.90
2018-11-04T16:49:29.386Z,47.90
2018-11-04T16:51:57.755Z,47.90
2018-11-04T16:54:26.310Z,48.00
2018-11-04T16:56:55.653Z,48.00
2018-11-04T16:59:25.229Z,48.10
2018-11-04T17:01:53.625Z,48.10
2018-11-04T17:04:23.524Z,48.00
2018-11-04T17:06:51.912Z,48.10
2018-11-04T17:09:20.318Z,48.10
2018-11-04T17:11:48.815Z,48.10
2018-11-04T17:14:17.388Z,48.10
2018-11-04T17:16:46.663Z,48.20
2018-11-04T17:19:15.111Z,48.20
2018-11-04T17:21:43.652Z,48.20
2018-11-04T17:24:15.054Z,48.10
2018-11-04T17:26:43.640Z,48.10
2018-11-04T17:29:12.128Z,48.10
2018-11-04T17:31:40.528Z,48.10
2018-11-04T17:34:08.922Z,48.20
2018-11-04T17:36:37.366Z,48.30
2018-11-04T17:39:08.234Z,48.90
2018-11-04T17:41:36.606Z,48.20
2018-11-04T17:44:05.587Z,48.20
2018-11-04T17:46:33.947Z,48.20
2018-11-04T17:49:03.215Z,48.20
2018-11-04T17:51:31.585Z,48.10
2018-11-04T17:53:59.978Z,48.10
2018-11-04T17:56:28.332Z,48.10
2018-11-04T17:58:56.698Z,48.10
2018-11-04T18:01:25.406Z,48.10
2018-11-04T18:03:53.749Z,48.00
2018-11-04T18:06:22.228Z,48.00
2018-11-04T18:08:50.988Z,48.10
2018-11-04T18:11:19.607Z,48.20
2018-11-04T18:13:48.111Z,48.20
2018-11-04T18:16:16.496Z,48.10
2018-11-04T18:18:45.423Z,47.70
2018-11-04T18:21:14.893Z,47.50
2018-11-04T18:23:43.268Z,47.70
2018-11-04T18:26:11.641Z,47.80
2018-11-04T18:28:39.968Z,48.00
2018-11-04T18:31:08.560Z,48.10
2018-11-04T18:33:37.026Z,48.20
2018-11-04T18:36:06.289Z,48.40
2018-11-04T18:38:34.683Z,48.50
2018-11-04T18:41:04.846Z,48.60
2018-11-04T18:43:33.387Z,48.70
2018-11-04T18:46:02.546Z,48.80
2018-11-04T18:48:31.226Z,48.80
2018-11-04T18:51:00.873Z,48.90
2018-11-04T18:53:30.236Z,48.90
2018-11-04T18:55:59.184Z,48.90
2018-11-04T18:58:27.848Z,48.80
2018-11-04T19:00:56.500Z,48.90
2018-11-04T19:03:24.984Z,48.90
2018-11-04T19:05:53.448Z,48.90
2018-11-04T19:08:22.489Z,48.90
2018-11-04T19:10:50.934Z,48.90
2018-11-04T19:13:19.381Z,48.90
2018-11-04T19:15:47.966Z,48.90
2018-11-04T19:18:16.656Z,48.90
2018-11-04T19:20:46.448Z,48.90
2018-11-04T19:23:14.905Z,48.90
2018-11-04T19:25:43.313Z,48.90
2018-11-04T19:28:11.708Z,48.90
2018-11-04T19:30:40.771Z,48.90
2018-11-04T19:33:09.308Z,48.90
2018-11-04T19:35:37.740Z,48.90
2018-11-04T19:38:06.756Z,49.00
2018-11-04T19:40:35.118Z,48.90
2018-11-04T19:43:03.535Z,48.90
2018-11-04T19:45:32.467Z,48.80
2018-11-04T19:48:00.869Z,48.90
2018-11-04T19:50:29.144Z,48.80
2018-11-04T19:52:58.524Z,48.80
2018-11-04T19:55:26.991Z,48.80
2018-11-04T19:57:55.386Z,48.80
2018-11-04T20:00:23.810Z,48.80
2018-11-04T20:02:53.639Z,48.80
2018-11-04T20:05:22.947Z,48.80
2018-11-04T20:07:51.242Z,48.70
2018-11-04T20:10:20.494Z,48.70
2018-11-04T20:12:54.186Z,48.70
2018-11-04T20:15:22.567Z,48.70
2018-11-04T20:17:51.132Z,48.70
2018-11-04T20:20:22.261Z,48.60
2018-11-04T20:22:50.644Z,48.60
2018-11-04T20:25:24.351Z,48.60
2018-11-04T20:27:53.208Z,48.70
2018-11-04T20:30:21.678Z,48.70
2018-11-04T20:32:56.114Z,48.60
2018-11-04T20:35:24.535Z,48.60
2018-11-04T20:37:52.921Z,48.60
2018-11-04T20:40:26.594Z,48.60
2018-11-04T20:42:54.990Z,48.60
2018-11-04T20:45:23.467Z,48.60
2018-11-04T20:47:57.355Z,49.20
2018-11-04T20:50:30.948Z,48.60
2018-11-04T20:52:59.337Z,48.50
2018-11-04T20:55:33.197Z,48.50
2018-11-04T20:58:01.907Z,48.50
2018-11-04T21:00:30.219Z,48.50
2018-11-04T21:02:58.638Z,48.40
2018-11-04T21:05:27.148Z,48.50
2018-11-04T21:07:55.598Z,48.30
2018-11-04T21:10:24.367Z,48.30
2018-11-04T21:12:52.765Z,48.30
2018-11-04T21:15:21.180Z,48.30
2018-11-04T21:17:49.560Z,48.30
2018-11-04T21:20:18.252Z,48.20
2018-11-04T21:22:46.647Z,48.20
2018-11-04T21:25:15.051Z,48.20
2018-11-04T21:27:43.401Z,48.20
2018-11-04T21:30:12.996Z,48.10
2018-11-04T21:32:41.482Z,48.10
2018-11-04T21:35:09.908Z,48.10
2018-11-04T21:37:38.447Z,48.00
2018-11-04T21:40:08.392Z,48.00
2018-11-04T21:42:37.119Z,48.00
2018-11-04T21:45:07.072Z,47.90
2018-11-04T21:47:36.531Z,47.90
2018-11-04T21:50:05.692Z,48.00
2018-11-04T21:52:34.083Z,47.90
2018-11-04T21:55:02.468Z,47.80
2018-11-04T21:57:30.796Z,47.80
2018-11-04T21:59:59.986Z,47.80
2018-11-04T22:02:28.571Z,47.80
2018-11-04T22:04:56.784Z,47.70
2018-11-04T22:07:25.165Z,47.70
2018-11-04T22:09:53.598Z,47.70
2018-11-04T22:12:21.983Z,47.60
2018-11-04T22:14:50.366Z,47.60
2018-11-04T22:17:18.800Z,47.60
2018-11-04T22:19:48.133Z,47.60
2018-11-04T22:22:16.506Z,47.60
2018-11-04T22:24:44.902Z,47.60
2018-11-04T22:27:13.379Z,47.60
2018-11-04T22:29:41.996Z,47.60
2018-11-04T22:32:10.956Z,47.60
2018-11-04T22:34:39.451Z,48.20
2018-11-04T22:37:07.834Z,47.60
2018-11-04T22:39:36.169Z,47.60
2018-11-04T22:42:04.692Z,47.60
2018-11-04T22:44:33.013Z,47.60
2018-11-04T22:47:01.393Z,47.50
2018-11-04T22:49:29.911Z,47.50
2018-11-04T22:51:58.804Z,47.50
2018-11-04T22:54:27.182Z,48.20
2018-11-04T22:56:55.554Z,47.50
2018-11-04T22:59:23.987Z,46.90
2018-11-04T23:01:52.627Z,47.50
2018-11-04T23:04:27.021Z,47.50
2018-11-04T23:06:55.429Z,47.50
2018-11-04T23:09:23.821Z,47.40
2018-11-04T23:11:52.189Z,47.40
2018-11-04T23:14:21.285Z,47.40
2018-11-04T23:16:49.735Z,47.40
2018-11-04T23:19:18.075Z,47.40
2018-11-04T23:21:46.776Z,47.50
2018-11-04T23:24:15.210Z,47.30
2018-11-04T23:26:43.594Z,47.30
2018-11-04T23:29:12.052Z,47.30
2018-11-04T23:31:40.467Z,47.30
2018-11-04T23:34:08.876Z,47.50
2018-11-04T23:36:37.331Z,47.30
2018-11-04T23:39:07.428Z,47.30
2018-11-04T23:41:36.744Z,47.30
2018-11-04T23:44:05.280Z,47.30
2018-11-04T23:46:33.733Z,47.20
2018-11-04T23:49:02.187Z,47.30
2018-11-04T23:51:30.673Z,47.30
2018-11-04T23:53:59.318Z,47.20
2018-11-04T23:56:27.781Z,47.20
2018-11-04T23:58:56.128Z,47.30
